Time;durP1;ratioP1;P1;durP2;ratioP2;P2;SDS_P1;SDS_P2;PMS_P1;PMS_P2;Temp;Humidity;BMP_temperature;BMP_pressure;BME280_temperature;BME280_humidity;BME280_pressure;Samples;Min_cycle;Max_cycle;Signal;HPM_P1;HPM_P2
2023/01/12 00:01:19;;;;;;;36.60;16.63;;;11.70;99.90;;;;;;4932923;28;20051;-82
2023/01/12 00:03:45;;;;;;;27.70;17.08;;;11.70;99.90;;;;;;4934842;29;20028;-82
2023/01/12 00:06:11;;;;;;;25.50;17.48;;;11.70;99.90;;;;;;4917137;29;20381;-82
2023/01/12 00:08:37;;;;;;;31.63;17.55;;;11.70;99.90;;;;;;4934101;29;20039;-82
2023/01/12 00:11:03;;;;;;;29.13;17.85;;;11.70;99.90;;;;;;4919352;29;20054;-82
2023/01/12 00:13:30;;;;;;;26.30;16.48;;;11.70;99.90;;;;;;4934247;29;20051;-82
2023/01/12 00:18:42;;;;;;;23.48;16.95;;;11.60;99.90;;;;;;4920376;29;20035;-82
2023/01/12 00:21:08;;;;;;;29.58;16.70;;;11.60;99.90;;;;;;4913975;29;20504;-82
2023/01/12 00:23:34;;;;;;;25.63;17.48;;;11.50;99.90;;;;;;4925784;29;20051;-82
2023/01/12 00:26:00;;;;;;;33.97;17.98;;;11.50;99.90;;;;;;4917069;29;20035;-82
2023/01/12 00:28:26;;;;;;;22.17;17.55;;;11.50;99.90;;;;;;4917480;29;20043;-82
2023/01/12 00:30:58;;;;;;;32.08;17.98;;;11.50;99.90;;;;;;4917436;29;20048;-82
2023/01/12 00:33:24;;;;;;;26.02;18.60;;;11.50;99.90;;;;;;4901833;29;20043;-82
2023/01/12 00:35:50;;;;;;;26.92;18.33;;;11.50;99.90;;;;;;4901667;29;20047;-82
2023/01/12 00:38:16;;;;;;;24.02;17.08;;;11.40;99.90;;;;;;4934209;29;20040;-82
2023/01/12 00:40:42;;;;;;;20.42;16.65;;;11.50;99.90;;;;;;4916986;29;20420;-82
2023/01/12 00:45:53;;;;;;;25.88;15.75;;;11.40;99.90;;;;;;4920378;29;20047;-82
2023/01/12 00:48:19;;;;;;;33.33;18.33;;;11.50;99.90;;;;;;4917188;29;20482;-82
2023/01/12 00:50:45;;;;;;;29.90;16.50;;;11.40;99.90;;;;;;4933440;29;20060;-82
2023/01/12 00:53:12;;;;;;;28.05;17.65;;;11.40;99.90;;;;;;4935319;29;20498;-82
2023/01/12 00:55:38;;;;;;;29.10;18.73;;;11.40;99.90;;;;;;4920195;29;20036;-82
2023/01/12 00:58:04;;;;;;;27.75;17.00;;;11.40;99.90;;;;;;4920864;29;20024;-82
2023/01/12 01:00:30;;;;;;;26.48;17.15;;;11.40;99.90;;;;;;4919424;29;20039;-82
2023/01/12 01:02:57;;;;;;;24.35;17.42;;;11.40;99.90;;;;;;4936919;29;20032;-82
2023/01/12 01:05:23;;;;;;;28.45;18.35;;;11.40;99.90;;;;;;4901515;29;20044;-82
2023/01/12 01:07:49;;;;;;;31.15;17.85;;;11.50;99.90;;;;;;4920191;29;20036;-82
2023/01/12 01:10:15;;;;;;;28.88;17.13;;;11.50;99.90;;;;;;4941987;29;20031;-82
2023/01/12 01:12:41;;;;;;;29.08;18.85;;;11.50;99.90;;;;;;4920346;29;20117;-82
2023/01/12 01:15:08;;;;;;;30.30;17.92;;;11.50;99.90;;;;;;4920282;28;20390;-82
2023/01/12 01:17:34;;;;;;;25.65;17.40;;;11.50;99.90;;;;;;4919527;29;20043;-82
2023/01/12 01:20:00;;;;;;;31.63;18.75;;;11.50;99.90;;;;;;4924111;29;20046;-83
2023/01/12 01:22:26;;;;;;;34.67;17.50;;;11.60;99.90;;;;;;4918234;29;20028;-82
2023/01/12 01:24:52;;;;;;;28.40;18.85;;;11.60;99.90;;;;;;4937507;29;20043;-82
2023/01/12 01:27:19;;;;;;;29.55;17.27;;;11.50;99.90;;;;;;4920535;29;20039;-82
2023/01/12 01:29:45;;;;;;;39.53;19.08;;;11.50;99.90;;;;;;4937380;29;20477;-82
2023/01/12 01:32:11;;;;;;;22.90;17.45;;;11.50;99.90;;;;;;4918427;29;20044;-82
2023/01/12 01:34:37;;;;;;;28.77;18.60;;;11.50;99.90;;;;;;4920466;29;20043;-82
2023/01/12 01:37:03;;;;;;;31.50;18.50;;;11.50;99.90;;;;;;4919740;29;20028;-82
2023/01/12 01:39:29;;;;;;;29.95;18.42;;;11.50;99.90;;;;;;4937030;29;20031;-82
2023/01/12 01:41:55;;;;;;;38.80;19.35;;;11.50;99.90;;;;;;4919264;29;20386;-82
2023/01/12 01:44:30;;;;;;;30.60;18.95;;;11.50;99.90;;;;;;4936355;29;20042;-82
2023/01/12 01:47:01;;;;;;;30.75;18.38;;;11.50;99.90;;;;;;4935996;28;20040;-82
2023/01/12 01:49:35;;;;;;;35.30;18.30;;;11.50;99.90;;;;;;4920194;29;20047;-82
2023/01/12 01:52:05;;;;;;;30.85;18.63;;;11.40;99.90;;;;;;4906279;29;20403;-82
2023/01/12 01:54:35;;;;;;;24.17;18.00;;;11.50;99.90;;;;;;4916719;29;20385;-82
2023/01/12 01:57:01;;;;;;;35.45;19.23;;;11.40;99.90;;;;;;4924282;29;20393;-82
2023/01/12 01:59:28;;;;;;;29.15;18.45;;;11.40;99.90;;;;;;4919870;29;20040;-82
2023/01/12 02:01:55;;;;;;;29.58;18.88;;;11.50;99.90;;;;;;4917477;29;20028;-82
2023/01/12 02:04:21;;;;;;;22.98;17.85;;;11.50;99.90;;;;;;4919437;29;20046;-82
2023/01/12 02:06:47;;;;;;;24.92;17.63;;;11.50;99.90;;;;;;4919120;29;20087;-82
2023/01/12 02:09:25;;;;;;;36.47;18.98;;;11.50;99.90;;;;;;4936550;29;20389;-83
2023/01/12 02:17:39;;;;;;;19.60;16.98;;;11.50;99.90;;;;;;4921873;29;20397;-82
2023/01/12 02:20:28;;;;;;;29.40;19.05;;;11.60;99.90;;;;;;4940841;29;20377;-82
2023/01/12 02:23:15;;;;;;;28.70;17.52;;;11.60;99.90;;;;;;4838766;29;20038;-82
2023/01/12 02:25:52;;;;;;;30.52;17.83;;;11.50;99.90;;;;;;4840283;29;20053;-82
2023/01/12 02:28:34;;;;;;;31.23;17.88;;;11.50;99.90;;;;;;4843821;29;20045;-82
2023/01/12 02:31:21;;;;;;;26.40;17.13;;;11.50;99.90;;;;;;4838728;29;20443;-82
2023/01/12 02:33:54;;;;;;;28.20;17.63;;;11.50;99.90;;;;;;4840391;29;20046;-82
2023/01/12 02:36:23;;;;;;;31.58;17.75;;;11.50;99.90;;;;;;4839051;29;20138;-82
2023/01/12 02:38:54;;;;;;;28.65;16.67;;;11.60;99.90;;;;;;4840364;29;20053;-82
2023/01/12 02:44:32;;;;;;;23.77;17.08;;;11.60;99.90;;;;;;4859570;29;20130;-82
2023/01/12 02:46:58;;;;;;;28.15;17.55;;;11.60;99.90;;;;;;4843301;29;20138;-82
2023/01/12 02:49:24;;;;;;;30.90;18.95;;;11.60;99.90;;;;;;4829395;29;20071;-82
2023/01/12 02:51:56;;;;;;;31.55;16.30;;;11.60;99.90;;;;;;4848851;29;20034;-82
2023/01/12 02:54:22;;;;;;;29.80;17.17;;;11.60;99.90;;;;;;4839368;29;20045;-82
2023/01/12 02:56:55;;;;;;;29.20;17.67;;;11.60;99.90;;;;;;4839155;29;20042;-82
2023/01/12 02:59:34;;;;;;;29.73;19.58;;;11.60;99.90;;;;;;4842173;29;20398;-82
2023/01/12 03:02:10;;;;;;;32.80;16.70;;;11.60;99.90;;;;;;4927266;29;20054;-82
2023/01/12 03:04:36;;;;;;;33.92;16.30;;;11.60;99.90;;;;;;4911921;29;20024;-82
2023/01/12 03:07:02;;;;;;;21.20;16.58;;;11.70;99.90;;;;;;4907032;29;20024;-83
2023/01/12 03:09:46;;;;;;;27.85;17.10;;;11.70;99.90;;;;;;4925629;29;20039;-82
2023/01/12 03:12:24;;;;;;;25.52;17.83;;;11.60;99.90;;;;;;4886947;29;20051;-82
2023/01/12 03:14:50;;;;;;;28.55;17.00;;;11.70;99.90;;;;;;4915511;29;20048;-82
2023/01/12 03:17:27;;;;;;;24.77;16.98;;;11.70;99.90;;;;;;4898032;29;20067;-82
2023/01/12 03:19:53;;;;;;;26.60;16.90;;;11.70;99.90;;;;;;4919441;29;20034;-82
2023/01/12 03:22:19;;;;;;;24.52;17.98;;;11.70;99.90;;;;;;4920136;29;20044;-82
2023/01/12 03:24:47;;;;;;;27.50;16.85;;;11.70;99.90;;;;;;4916570;29;20028;-82
2023/01/12 03:27:17;;;;;;;34.33;18.98;;;11.70;99.90;;;;;;4931898;29;20039;-81
2023/01/12 03:29:53;;;;;;;28.05;17.08;;;11.70;99.90;;;;;;4935335;29;20067;-82
2023/01/12 03:32:20;;;;;;;40.13;19.48;;;11.70;99.90;;;;;;4896883;29;20036;-82
2023/01/12 03:34:46;;;;;;;28.60;17.60;;;11.70;99.90;;;;;;4913846;29;20477;-83
2023/01/12 03:37:30;;;;;;;30.45;18.63;;;11.70;99.90;;;;;;4916885;29;20042;-82
2023/01/12 03:40:12;;;;;;;28.40;16.88;;;11.70;99.90;;;;;;4933142;29;20084;-82
2023/01/12 03:42:45;;;;;;;29.95;16.73;;;11.70;99.90;;;;;;4917287;29;20035;-82
2023/01/12 03:45:25;;;;;;;26.25;16.05;;;11.70;99.90;;;;;;4934758;28;20047;-82
2023/01/12 03:47:54;;;;;;;34.47;16.48;;;11.70;99.90;;;;;;4935288;29;20036;-82
2023/01/12 03:50:23;;;;;;;22.48;16.27;;;11.70;99.90;;;;;;4918350;29;20048;-82
2023/01/12 03:52:49;;;;;;;20.85;16.52;;;11.70;99.90;;;;;;4915736;29;20039;-82
2023/01/12 03:55:16;;;;;;;27.55;17.63;;;11.70;99.90;;;;;;4917414;29;20044;-82
2023/01/12 03:57:42;;;;;;;23.33;17.35;;;11.70;99.90;;;;;;4917653;29;20058;-82
2023/01/12 04:00:09;;;;;;;24.52;16.95;;;11.70;99.90;;;;;;4917721;28;20028;-83
2023/01/12 04:02:35;;;;;;;32.92;18.70;;;11.70;99.90;;;;;;4917461;29;20058;-83
2023/01/12 04:05:01;;;;;;;27.38;17.98;;;11.70;99.90;;;;;;4918217;29;20031;-82
2023/01/12 04:07:29;;;;;;;26.88;16.90;;;11.70;99.90;;;;;;4912127;29;20596;-83
2023/01/12 04:09:56;;;;;;;24.35;16.52;;;11.70;99.90;;;;;;4938241;29;20039;-83
2023/01/12 04:12:22;;;;;;;27.75;17.63;;;11.70;99.90;;;;;;4919906;29;20059;-83
2023/01/12 04:14:48;;;;;;;31.10;18.38;;;11.70;99.90;;;;;;4917870;29;20477;-83
2023/01/12 04:17:15;;;;;;;27.58;19.70;;;11.70;99.90;;;;;;4934436;28;20059;-83
2023/01/12 04:19:41;;;;;;;23.92;18.17;;;11.80;99.90;;;;;;4901429;29;20036;-83
2023/01/12 04:24:53;;;;;;;33.28;19.73;;;11.80;99.90;;;;;;4908056;29;20421;-82
2023/01/12 04:27:19;;;;;;;23.20;18.77;;;11.70;99.90;;;;;;4919037;29;20032;-82
2023/01/12 04:29:45;;;;;;;36.80;22.30;;;11.70;99.90;;;;;;4933020;29;20474;-82
2023/01/12 04:32:11;;;;;;;23.65;20.33;;;11.70;99.90;;;;;;4920670;28;20031;-83
2023/01/12 04:34:38;;;;;;;26.00;19.95;;;11.70;99.90;;;;;;4938725;29;20035;-82
2023/01/12 04:37:04;;;;;;;32.25;20.27;;;11.70;99.90;;;;;;4937565;29;20035;-82
2023/01/12 04:39:30;;;;;;;33.70;19.50;;;11.80;99.90;;;;;;4921575;29;20036;-82
2023/01/12 04:41:56;;;;;;;33.83;20.40;;;11.80;99.90;;;;;;4900645;29;20434;-82
2023/01/12 04:44:22;;;;;;;30.88;17.77;;;11.80;99.90;;;;;;4929109;29;20500;-82
2023/01/12 04:46:49;;;;;;;31.30;17.33;;;11.80;99.90;;;;;;4920635;29;20047;-81
2023/01/12 04:49:15;;;;;;;30.48;17.23;;;11.80;99.90;;;;;;4920559;29;20035;-82
2023/01/12 04:51:41;;;;;;;28.48;18.80;;;11.80;99.90;;;;;;4908870;29;20276;-83
2023/01/12 04:54:09;;;;;;;25.13;18.73;;;11.80;99.90;;;;;;4921054;29;20492;-83
2023/01/12 04:56:35;;;;;;;26.05;17.92;;;11.80;99.90;;;;;;4920739;29;20047;-83
2023/01/12 04:59:01;;;;;;;31.35;18.77;;;11.80;99.90;;;;;;4919811;29;20500;-82
2023/01/12 05:01:28;;;;;;;26.33;19.38;;;11.80;99.90;;;;;;4919894;29;20036;-82
2023/01/12 05:03:59;;;;;;;24.58;15.48;;;11.80;99.90;;;;;;4920713;29;20040;-82
2023/01/12 05:06:25;;;;;;;;;;;11.70;99.90;;;;;;4919942;29;20048;-83
2023/01/12 05:11:36;;;;;;;24.77;16.08;;;11.60;99.90;;;;;;4933124;29;20043;-82
2023/01/12 05:14:03;;;;;;;34.30;19.60;;;11.60;99.90;;;;;;4919628;29;20405;-83
2023/01/12 05:16:29;;;;;;;33.13;18.08;;;11.50;99.90;;;;;;4936164;28;20040;-83
2023/01/12 05:18:55;;;;;;;29.67;19.33;;;11.50;99.90;;;;;;4900389;29;20040;-82
2023/01/12 05:21:22;;;;;;;29.92;18.90;;;11.50;99.90;;;;;;4934564;29;20496;-83
2023/01/12 05:23:49;;;;;;;25.70;17.00;;;11.50;99.90;;;;;;4919755;29;20039;-83
2023/01/12 05:26:15;;;;;;;27.30;16.98;;;11.50;99.90;;;;;;4937537;29;20058;-83
2023/01/12 05:28:41;;;;;;;31.67;17.08;;;11.50;99.90;;;;;;4937173;29;20043;-83
2023/01/12 05:31:09;;;;;;;31.48;18.67;;;11.50;99.90;;;;;;4935654;29;20043;-83
2023/01/12 05:33:36;;;;;;;27.33;17.00;;;11.50;99.90;;;;;;4919701;29;20032;-83
2023/01/12 05:36:10;;;;;;;28.45;18.70;;;11.50;99.90;;;;;;4903596;29;20039;-83
2023/01/12 05:38:36;;;;;;;25.88;16.20;;;11.50;99.90;;;;;;4919348;29;20042;-83
2023/01/12 05:41:03;;;;;;;25.67;16.40;;;11.50;99.90;;;;;;4937297;29;20047;-83
2023/01/12 05:46:14;;;;;;;25.05;17.30;;;11.60;99.90;;;;;;4922550;29;20039;-83
2023/01/12 05:48:40;;;;;;;24.08;19.48;;;11.60;99.90;;;;;;4919378;29;20028;-82
2023/01/12 05:51:08;;;;;;;25.15;18.33;;;11.60;99.90;;;;;;4936252;29;20047;-82
2023/01/12 05:53:34;;;;;;;24.60;17.02;;;11.60;99.90;;;;;;4919591;29;20038;-83
2023/01/12 05:56:05;;;;;;;29.63;18.05;;;11.60;99.90;;;;;;4936908;29;20027;-83
2023/01/12 05:58:31;;;;;;;32.05;18.95;;;11.60;99.90;;;;;;4919010;29;20035;-83
2023/01/12 06:00:58;;;;;;;28.92;18.90;;;11.60;99.90;;;;;;4903032;29;20051;-82
2023/01/12 06:03:24;;;;;;;28.85;18.33;;;11.60;99.90;;;;;;4919954;29;20036;-82
2023/01/12 06:05:54;;;;;;;26.63;17.92;;;11.60;99.90;;;;;;4936068;29;20036;-83
2023/01/12 06:08:20;;;;;;;29.98;19.55;;;11.70;99.90;;;;;;4935682;29;20032;-83
2023/01/12 06:10:47;;;;;;;27.25;17.13;;;11.70;99.90;;;;;;4929584;29;20039;-82
2023/01/12 06:16:04;;;;;;;24.48;18.52;;;11.60;99.90;;;;;;4956065;28;20046;-82
2023/01/12 06:18:37;;;;;;;24.58;17.63;;;11.70;99.90;;;;;;4939072;29;20039;-82
2023/01/12 06:21:04;;;;;;;26.13;17.98;;;11.70;99.90;;;;;;4892073;29;20062;-83
2023/01/12 06:23:30;;;;;;;21.75;17.42;;;11.70;99.90;;;;;;4907993;29;20374;-82
2023/01/12 06:25:59;;;;;;;19.83;17.60;;;11.70;99.90;;;;;;4919257;29;20032;-82
2023/01/12 06:28:26;;;;;;;24.52;17.77;;;11.70;99.90;;;;;;4902990;29;20143;-82
2023/01/12 06:31:01;;;;;;;18.08;16.45;;;11.60;99.90;;;;;;4934637;28;20055;-82
2023/01/12 06:33:28;;;;;;;20.88;16.27;;;11.70;99.90;;;;;;4918169;29;20036;-83
2023/01/12 06:35:54;;;;;;;18.77;16.92;;;11.60;99.90;;;;;;4918707;29;20031;-82
2023/01/12 06:38:22;;;;;;;20.83;18.25;;;11.60;99.90;;;;;;4918652;29;20032;-82
2023/01/12 06:40:48;;;;;;;18.83;16.95;;;11.60;99.90;;;;;;4919012;29;20039;-82
2023/01/12 06:43:14;;;;;;;19.10;17.27;;;11.60;99.90;;;;;;4919146;29;20035;-83
2023/01/12 06:45:40;;;;;;;19.92;18.13;;;11.60;99.90;;;;;;4918848;29;20042;-82
2023/01/12 06:48:07;;;;;;;18.52;16.08;;;11.60;99.90;;;;;;4934667;29;20036;-83
2023/01/12 06:50:34;;;;;;;27.08;17.55;;;11.60;99.90;;;;;;4918531;29;20044;-82
2023/01/12 06:53:01;;;;;;;18.58;16.85;;;11.60;99.90;;;;;;4918934;29;20504;-80
2023/01/12 06:55:27;;;;;;;22.30;18.95;;;11.70;99.90;;;;;;4918901;29;20034;-80
2023/01/12 06:57:53;;;;;;;19.33;15.80;;;11.70;99.90;;;;;;4918043;29;20024;-82
2023/01/12 07:00:20;;;;;;;19.38;17.42;;;11.70;99.90;;;;;;4917385;28;20035;-82
2023/01/12 07:02:49;;;;;;;26.20;16.73;;;11.70;99.90;;;;;;4934911;29;20039;-82
2023/01/12 07:05:16;;;;;;;20.92;17.50;;;11.70;99.90;;;;;;4916172;29;20040;-83
2023/01/12 07:07:42;;;;;;;19.27;17.40;;;11.70;99.90;;;;;;4915614;29;20054;-83
2023/01/12 07:10:10;;;;;;;20.48;16.95;;;11.70;99.90;;;;;;4918614;29;20035;-82
2023/01/12 07:12:36;;;;;;;29.00;17.33;;;11.70;99.90;;;;;;4917386;29;20055;-83
2023/01/12 07:15:03;;;;;;;27.27;17.77;;;11.70;99.90;;;;;;4900794;29;20036;-82
2023/01/12 07:17:29;;;;;;;20.60;16.38;;;11.70;99.90;;;;;;4925779;29;20040;-83
2023/01/12 07:19:55;;;;;;;23.63;18.05;;;11.60;99.90;;;;;;4921003;29;20095;-85
2023/01/12 07:22:21;;;;;;;21.30;17.58;;;11.60;99.90;;;;;;4903005;29;20035;-85
2023/01/12 07:24:47;;;;;;;24.38;17.30;;;11.60;99.90;;;;;;4911053;29;20400;-87
2023/01/12 07:27:13;;;;;;;19.52;15.75;;;11.60;99.90;;;;;;4902587;29;20485;-90
2023/01/12 07:29:40;;;;;;;26.45;23.90;;;11.60;99.90;;;;;;4920108;29;20036;-89
2023/01/12 07:32:06;;;;;;;39.83;36.30;;;11.60;99.90;;;;;;4917751;29;20047;-89
2023/01/12 07:34:32;;;;;;;36.08;32.58;;;11.50;99.90;;;;;;4918093;29;20070;-90
2023/01/12 07:36:58;;;;;;;31.25;28.40;;;11.50;99.90;;;;;;4919350;29;20028;-87
2023/01/12 07:39:24;;;;;;;24.83;20.35;;;11.50;99.90;;;;;;4918236;29;20043;-88
2023/01/12 07:44:34;;;;;;;26.17;18.00;;;11.40;99.90;;;;;;4923199;29;20035;-89
2023/01/12 07:47:00;;;;;;;25.45;18.58;;;11.40;99.90;;;;;;4917580;29;20055;-89
2023/01/12 07:49:27;;;;;;;29.15;20.25;;;11.40;99.90;;;;;;4935794;29;20058;-88
2023/01/12 07:51:53;;;;;;;27.25;19.73;;;11.40;99.90;;;;;;4918274;29;20059;-89
2023/01/12 07:54:19;;;;;;;22.33;18.88;;;11.40;99.90;;;;;;4918517;29;20032;-84
2023/01/12 07:56:46;;;;;;;27.15;24.50;;;11.40;99.90;;;;;;4916549;29;20032;-88
2023/01/12 07:59:12;;;;;;;27.58;24.88;;;11.40;99.90;;;;;;4901302;29;20035;-88
2023/01/12 08:01:39;;;;;;;26.08;23.67;;;11.40;99.90;;;;;;4920781;29;20043;-89
2023/01/12 08:04:06;;;;;;;27.55;24.65;;;11.30;99.90;;;;;;4922695;29;20032;-87
2023/01/12 08:06:33;;;;;;;32.08;26.95;;;11.30;99.90;;;;;;4925718;29;20028;-88
2023/01/12 08:08:59;;;;;;;29.15;26.25;;;11.30;99.90;;;;;;4924633;29;20261;-90
2023/01/12 08:11:25;;;;;;;26.63;24.20;;;11.30;99.90;;;;;;4927074;29;20047;-94
2023/01/12 08:13:55;;;;;;;26.58;24.08;;;11.30;99.90;;;;;;4921602;29;20067;-94
2023/01/12 08:16:24;;;;;;;25.38;23.27;;;11.30;99.90;;;;;;4925039;29;20643;-92
2023/01/12 08:18:50;;;;;;;26.83;24.75;;;11.40;99.90;;;;;;4925434;29;20043;-92
2023/01/12 08:21:19;;;;;;;28.17;26.08;;;11.40;99.90;;;;;;4941575;29;20031;-87
2023/01/12 08:23:48;;;;;;;26.40;24.05;;;11.40;99.90;;;;;;4934053;29;20412;-93
2023/01/12 08:26:17;;;;;;;27.85;25.52;;;11.40;99.90;;;;;;4946043;29;20388;-89
2023/01/12 08:28:49;;;;;;;29.05;26.60;;;11.40;99.90;;;;;;4914375;29;20038;-86
2023/01/12 08:31:15;;;;;;;28.00;25.77;;;11.40;99.90;;;;;;4920226;29;20043;-83
2023/01/12 08:33:41;;;;;;;23.05;21.20;;;11.40;99.90;;;;;;4922699;29;20032;-87
2023/01/12 08:36:09;;;;;;;28.90;26.20;;;11.40;99.90;;;;;;4923458;29;20105;-88
2023/01/12 08:38:35;;;;;;;27.80;25.40;;;11.40;99.90;;;;;;4920644;29;20023;-85
2023/01/12 08:44:06;;;;;;;25.38;23.42;;;11.50;99.90;;;;;;4926186;29;20047;-92
2023/01/12 08:46:48;;;;;;;28.13;26.20;;;11.50;99.90;;;;;;4896058;29;20036;-87
2023/01/12 08:49:15;;;;;;;29.60;27.23;;;11.50;99.90;;;;;;4938335;29;20047;-89
2023/01/12 08:51:41;;;;;;;30.60;28.23;;;11.50;99.90;;;;;;4922029;29;20497;-87
2023/01/12 08:54:08;;;;;;;33.78;31.08;;;11.50;99.90;;;;;;4934926;29;20039;-90
2023/01/12 08:56:35;;;;;;;38.03;35.13;;;11.60;99.90;;;;;;4902298;29;20051;-87
2023/01/12 08:59:01;;;;;;;39.22;36.42;;;11.60;99.90;;;;;;4910356;29;20478;-88
2023/01/12 09:01:27;;;;;;;34.53;32.35;;;11.60;99.90;;;;;;4932649;28;20047;-86
2023/01/12 09:03:55;;;;;;;33.47;30.98;;;11.60;99.90;;;;;;4935939;29;20058;-83
2023/01/12 09:06:29;;;;;;;28.92;26.98;;;11.60;99.90;;;;;;4918925;29;20039;-82
2023/01/12 09:08:56;;;;;;;27.35;25.40;;;11.60;99.90;;;;;;4902266;29;20043;-82
2023/01/12 09:11:23;;;;;;;28.25;25.85;;;11.60;99.90;;;;;;4948286;28;20051;-82
2023/01/12 09:13:49;;;;;;;24.45;22.42;;;11.60;99.90;;;;;;4889862;29;20573;-82
2023/01/12 09:16:16;;;;;;;25.48;23.60;;;11.70;99.90;;;;;;4927397;29;20047;-85
2023/01/12 09:18:42;;;;;;;23.77;22.17;;;11.70;99.90;;;;;;4920418;29;20019;-84
2023/01/12 09:21:14;;;;;;;24.20;22.02;;;11.70;99.90;;;;;;4933389;29;20058;-82
2023/01/12 09:23:40;;;;;;;23.50;21.25;;;11.70;99.90;;;;;;4921111;29;20036;-84
2023/01/12 09:26:11;;;;;;;16.08;13.63;;;11.80;99.90;;;;;;4921335;29;20040;-84
2023/01/12 09:28:37;;;;;;;17.38;15.85;;;11.80;99.90;;;;;;4905036;29;20036;-84
2023/01/12 09:31:08;;;;;;;16.50;14.85;;;11.80;99.90;;;;;;4933974;28;20497;-83
2023/01/12 09:33:35;;;;;;;;;;;11.80;99.90;;;;;;4919889;29;20036;-84
2023/01/12 09:36:02;;;;;;;19.45;15.07;;;11.80;99.90;;;;;;4928449;29;19911;-83
2023/01/12 09:38:28;;;;;;;19.48;15.88;;;11.90;99.90;;;;;;4910083;29;20040;-83
2023/01/12 09:46:57;;;;;;;18.58;16.35;;;12.00;99.90;;;;;;4903495;29;20062;-82
2023/01/12 09:46:57;;;;;;;19.23;17.02;;;12.20;99.90;;;;;;4922589;29;20158;-82
2023/01/12 09:49:28;;;;;;;23.98;17.30;;;12.20;99.90;;;;;;4918394;29;20055;-83
2023/01/12 09:52:01;;;;;;;23.27;16.10;;;12.30;99.90;;;;;;4885789;29;20044;-81
2023/01/12 09:54:27;;;;;;;20.75;18.58;;;12.30;99.90;;;;;;4922141;29;20036;-84
2023/01/12 09:57:00;;;;;;;33.10;21.63;;;12.40;99.90;;;;;;4900164;29;20079;-82
2023/01/12 09:59:50;;;;;;;28.92;24.45;;;12.40;99.90;;;;;;4929315;29;20059;-81
2023/01/12 10:02:16;;;;;;;29.63;21.95;;;12.50;99.90;;;;;;4922284;29;20039;-81
2023/01/12 10:04:42;;;;;;;25.63;21.23;;;12.50;99.90;;;;;;4919819;29;20039;-80
2023/01/12 10:07:13;;;;;;;31.23;24.90;;;12.50;99.90;;;;;;4901234;29;20044;-81
2023/01/12 10:09:39;;;;;;;36.42;25.13;;;12.50;99.90;;;;;;4918315;29;20043;-82
2023/01/12 10:12:30;;;;;;;27.75;25.05;;;12.40;99.90;;;;;;4919493;29;20055;-80
2023/01/12 10:14:58;;;;;;;24.75;22.35;;;12.40;99.90;;;;;;4920091;29;20027;-81
2023/01/12 10:17:45;;;;;;;27.38;24.90;;;12.40;99.90;;;;;;4935967;28;20039;-80
2023/01/12 10:20:28;;;;;;;28.15;25.70;;;12.40;99.90;;;;;;4901617;29;20043;-81
2023/01/12 10:22:58;;;;;;;29.95;26.17;;;12.40;99.90;;;;;;4918938;29;20039;-81
2023/01/12 10:25:36;;;;;;;29.65;26.65;;;12.50;99.90;;;;;;4888248;29;20056;-82
2023/01/12 10:28:22;;;;;;;32.78;29.55;;;12.50;99.90;;;;;;4935930;29;20046;-81
2023/01/12 10:30:49;;;;;;;33.63;30.08;;;12.60;99.90;;;;;;4919341;28;20052;-81
2023/01/12 10:33:19;;;;;;;30.25;27.45;;;12.60;99.90;;;;;;4918401;29;20479;-82
2023/01/12 10:35:54;;;;;;;33.88;30.85;;;12.60;99.90;;;;;;4917458;29;20035;-81
2023/01/12 10:38:25;;;;;;;33.65;30.55;;;12.60;99.90;;;;;;4919656;29;20028;-81
2023/01/12 10:41:15;;;;;;;28.85;25.90;;;12.60;99.90;;;;;;4901833;29;20039;-81
2023/01/12 10:43:43;;;;;;;26.88;23.58;;;12.70;99.90;;;;;;4916811;29;20036;-84
2023/01/12 10:46:09;;;;;;;28.73;24.38;;;12.70;99.90;;;;;;4887294;29;20039;-84
2023/01/12 10:48:37;;;;;;;28.55;23.77;;;12.70;99.90;;;;;;4933880;29;20047;-83
2023/01/12 10:51:17;;;;;;;34.03;25.80;;;12.80;99.90;;;;;;4900819;29;20031;-83
2023/01/12 10:53:44;;;;;;;28.35;23.65;;;12.80;99.90;;;;;;4916983;29;20390;-82
2023/01/12 10:56:34;;;;;;;26.88;23.95;;;12.80;99.90;;;;;;4917265;29;20031;-81
2023/01/12 10:59:16;;;;;;;28.15;21.63;;;12.80;99.90;;;;;;4927767;29;20047;-81
2023/01/12 11:01:49;;;;;;;29.90;21.73;;;12.80;99.90;;;;;;4919739;29;20043;-81
2023/01/12 11:04:19;;;;;;;23.25;19.95;;;12.80;99.90;;;;;;4927380;29;20047;-81
2023/01/12 11:07:02;;;;;;;25.85;21.77;;;12.80;99.90;;;;;;4902796;29;20063;-81
2023/01/12 11:09:29;;;;;;;29.50;21.25;;;12.80;99.90;;;;;;4918530;29;20031;-81
2023/01/12 11:12:14;;;;;;;35.17;21.25;;;12.90;99.90;;;;;;4907282;29;20048;-81
2023/01/12 11:14:40;;;;;;;32.30;22.13;;;12.90;99.90;;;;;;4916462;29;20047;-81
2023/01/12 11:17:55;;;;;;;24.73;21.42;;;12.90;99.90;;;;;;4915073;29;20059;-80
2023/01/12 11:20:33;;;;;;;23.48;19.95;;;12.90;99.90;;;;;;4920892;29;20054;-80
2023/01/12 11:23:01;;;;;;;25.90;21.55;;;12.90;99.90;;;;;;4916586;29;20489;-80
2023/01/12 11:25:33;;;;;;;25.10;22.52;;;12.90;99.90;;;;;;4916331;29;20047;-81
2023/01/12 11:28:18;;;;;;;26.38;20.90;;;12.90;99.90;;;;;;4923112;29;20395;-81
2023/01/12 11:30:50;;;;;;;26.42;24.08;;;12.90;99.90;;;;;;4930651;28;20583;-80
2023/01/12 11:33:20;;;;;;;27.15;20.98;;;12.90;99.90;;;;;;4933472;29;20044;-81
2023/01/12 11:35:46;;;;;;;24.55;20.77;;;12.90;99.90;;;;;;4917390;29;20027;-80
2023/01/12 11:38:22;;;;;;;23.92;21.40;;;12.90;99.90;;;;;;4933614;29;20039;-80
2023/01/12 11:40:48;;;;;;;24.38;21.00;;;12.90;99.90;;;;;;4917601;29;20023;-80
2023/01/12 11:46:27;;;;;;;29.80;27.08;;;12.90;99.90;;;;;;4935976;29;20413;-80
2023/01/12 11:49:06;;;;;;;;;;;12.90;99.90;;;;;;4909525;29;20044;-81
2023/01/12 11:51:32;;;;;;;28.02;25.38;;;12.90;99.90;;;;;;4933864;29;19926;-82
2023/01/12 11:53:58;;;;;;;34.50;31.98;;;12.90;99.90;;;;;;4916537;29;20413;-82
2023/01/12 11:56:40;;;;;;;35.13;32.05;;;12.90;99.90;;;;;;4916117;29;20048;-82
2023/01/12 11:59:28;;;;;;;33.95;31.00;;;13.00;99.90;;;;;;4917487;29;20039;-83
2023/01/12 12:02:18;;;;;;;34.50;31.63;;;12.90;99.90;;;;;;4932910;28;20042;-83
2023/01/12 12:05:22;;;;;;;31.63;29.13;;;12.90;99.90;;;;;;4916637;29;20063;-83
2023/01/12 12:08:03;;;;;;;35.78;33.30;;;12.90;99.90;;;;;;4931735;29;20043;-82
2023/01/12 12:10:41;;;;;;;32.97;30.55;;;13.00;99.90;;;;;;4932559;29;20051;-82
2023/01/12 12:13:16;;;;;;;36.20;33.33;;;13.00;99.90;;;;;;4916134;29;20400;-82
2023/01/12 12:15:49;;;;;;;42.30;38.50;;;13.10;99.90;;;;;;4932036;29;20031;-82
2023/01/12 12:18:35;;;;;;;39.63;36.40;;;13.10;99.90;;;;;;4917568;29;20032;-83
2023/01/12 12:21:19;;;;;;;37.85;35.15;;;13.10;99.90;;;;;;4927212;29;20055;-83
2023/01/12 12:24:01;;;;;;;33.17;30.75;;;13.00;99.90;;;;;;4917051;29;20524;-84
2023/01/12 12:26:31;;;;;;;32.97;30.75;;;13.00;99.90;;;;;;4922001;29;20024;-83
2023/01/12 12:29:12;;;;;;;34.58;31.65;;;13.00;99.90;;;;;;4901985;29;20036;-84
2023/01/12 12:31:50;;;;;;;33.13;29.88;;;13.10;99.90;;;;;;4934118;29;20063;-83
2023/01/12 12:34:25;;;;;;;30.77;27.60;;;13.10;99.90;;;;;;4932266;29;20027;-85
2023/01/12 12:37:04;;;;;;;30.33;28.00;;;13.00;99.90;;;;;;4933103;29;20043;-84
2023/01/12 12:39:37;;;;;;;28.88;26.15;;;13.00;99.90;;;;;;4916767;29;20043;-84
2023/01/12 12:45:25;;;;;;;28.58;26.02;;;13.10;99.90;;;;;;4894357;29;20032;-83
2023/01/12 12:48:02;;;;;;;24.40;22.40;;;13.10;99.90;;;;;;4881765;29;20066;-83
2023/01/12 12:50:35;;;;;;;26.58;24.42;;;13.10;99.90;;;;;;4881843;29;20437;-83
2023/01/12 12:53:12;;;;;;;30.02;27.25;;;13.10;99.90;;;;;;4882016;29;20383;-83
2023/01/12 12:55:38;;;;;;;26.95;24.67;;;13.10;99.90;;;;;;4881881;29;20041;-83
2023/01/12 12:58:20;;;;;;;31.17;28.50;;;13.20;99.90;;;;;;4897485;29;20047;-83
2023/01/12 13:00:46;;;;;;;33.45;30.73;;;13.20;99.90;;;;;;4878795;29;20518;-83
2023/01/12 13:03:51;;;;;;;31.33;28.50;;;13.20;99.90;;;;;;4895754;29;20070;-83
2023/01/12 13:06:26;;;;;;;32.72;29.88;;;13.20;99.90;;;;;;4841885;29;20049;-83
2023/01/12 13:08:53;;;;;;;34.97;32.38;;;13.20;99.90;;;;;;4840338;29;20522;-83
2023/01/12 13:11:20;;;;;;;33.15;30.48;;;13.20;99.90;;;;;;4840579;29;20555;-82
2023/01/12 13:14:30;;;;;;;32.63;29.70;;;13.20;99.90;;;;;;4839934;29;20045;-83
2023/01/12 13:16:59;;;;;;;26.23;23.95;;;13.10;99.90;;;;;;4800581;29;20406;-83
2023/01/12 13:19:46;;;;;;;22.45;20.52;;;13.10;99.90;;;;;;4787121;29;20545;-84
2023/01/12 13:22:31;;;;;;;23.27;21.15;;;13.10;99.90;;;;;;4795444;29;20038;-84
2023/01/12 13:25:02;;;;;;;21.85;18.20;;;13.10;99.90;;;;;;4790010;29;20047;-84